Time;durP1;ratioP1;P1;durP2;ratioP2;P2;SDS_P1;SDS_P2;PMS_P1;PMS_P2;Temp;Humidity;BMP_temperature;BMP_pressure;BME280_temperature;BME280_humidity;BME280_pressure;Samples;Min_cycle;Max_cycle;Signal;HPM_P1;HPM_P2
2022/06/20 00:01:45;;;;;;;;;;;;;;;28.29;26.99;101013.22;4415402;32;19962;-70
2022/06/20 00:04:13;;;;;;;;;;;;;;;28.29;27.11;101005.31;4413691;32;19984;-70
2022/06/20 00:06:39;;;;;;;;;;;;;;;28.21;27.21;101004.44;4418747;32;19979;-70
2022/06/20 00:09:05;;;;;;;;;;;;;;;28.26;27.15;100997.72;4415823;32;19973;-70
2022/06/20 00:11:34;;;;;;;;;;;;;;;28.04;27.30;101009.75;4418206;32;19996;-70
2022/06/20 00:14:00;;;;;;;;;;;;;;;27.98;27.37;101011.19;4414248;32;19958;-70
2022/06/20 00:16:25;;;;;;;;;;;;;;;27.94;27.50;101011.50;4417406;32;19980;-70
2022/06/20 00:18:51;;;;;;;;;;;;;;;27.75;27.52;101004.19;4414334;32;19966;-70
2022/06/20 00:21:19;;;;;;;;;;;;;;;27.81;27.58;101004.88;4416391;32;20011;-70
2022/06/20 00:23:45;;;;;;;;;;;;;;;27.68;27.86;100999.87;4415153;32;20004;-70
2022/06/20 00:26:11;;;;;;;;;;;;;;;27.66;27.90;101001.72;4413961;32;20429;-70
2022/06/20 00:28:37;;;;;;;;;;;;;;;27.79;27.70;100993.09;4416411;32;19989;-70
2022/06/20 00:31:03;;;;;;;;;;;;;;;27.83;27.60;100990.66;4416043;32;20215;-70
2022/06/20 00:33:29;;;;;;;;;;;;;;;27.67;27.89;100998.28;4416061;32;20081;-70
2022/06/20 00:35:55;;;;;;;;;;;;;;;27.71;27.86;100992.97;4415815;32;19953;-70
2022/06/20 00:38:22;;;;;;;;;;;;;;;27.73;27.60;100995.31;4416973;32;20001;-70
2022/06/20 00:43:27;;;;;;;;;;;;;;;28.11;26.49;100988.84;3949197;32;15780672;-70
2022/06/20 00:45:54;;;;;;;;;;;;;;;28.11;26.49;100988.84;4429755;32;19996;-70
2022/06/20 00:48:22;;;;;;;;;;;;;;;27.76;26.55;100988.44;4433323;32;19953;-70
2022/06/20 00:50:50;;;;;;;;;;;;;;;27.83;26.48;100996.44;4432075;32;20010;-70
2022/06/20 00:55:56;;;;;;;;;;;;;;;28.13;25.78;101001.72;3950701;32;15724646;-70
2022/06/20 01:01:10;;;;;;;;;;;;;;;28.22;25.89;101004.84;3957311;32;15723613;-70
2022/06/20 01:03:39;;;;;;;;;;;;;;;28.23;25.88;101010.44;4431010;32;20016;-70
2022/06/20 01:08:43;;;;;;;;;;;;;;;27.94;26.01;101014.41;3952882;32;15723525;-70
2022/06/20 01:11:16;;;;;;;;;;;;;;;27.94;26.01;101014.41;4429938;32;19957;-70
2022/06/20 01:13:42;;;;;;;;;;;;;;;28.13;25.83;101028.81;4425927;32;19961;-70
2022/06/20 01:16:27;;;;;;;;;;;;;;;28.16;25.81;101025.56;4429027;32;19965;-70
2022/06/20 01:18:54;;;;;;;;;;;;;;;28.08;25.94;101030.47;4428838;32;20390;-70
2022/06/20 01:21:21;;;;;;;;;;;;;;;28.08;25.88;101039.16;4425368;32;20020;-70
2022/06/20 01:24:00;;;;;;;;;;;;;;;28.26;25.67;101031.72;4428440;32;20027;-70
2022/06/20 01:29:07;;;;;;;;;;;;;;;28.41;25.63;101037.72;3951935;32;15722221;-70
2022/06/20 01:31:45;;;;;;;;;;;;;;;28.41;25.63;101037.72;4433240;32;20287;-70
2022/06/20 01:34:14;;;;;;;;;;;;;;;27.74;26.07;101040.25;4431816;32;19985;-70
2022/06/20 01:39:26;;;;;;;;;;;;;;;28.03;25.84;101042.91;4434786;32;19996;-70
2022/06/20 01:42:24;;;;;;;;;;;;;;;27.94;26.01;101034.66;4433238;32;19965;-70
2022/06/20 01:44:41;;;;;;;;;;;;;;;27.98;25.92;101037.22;4433470;32;20052;-70
2022/06/20 01:47:07;;;;;;;;;;;;;;;28.02;25.94;101032.69;4432023;32;19937;-70
2022/06/20 01:49:37;;;;;;;;;;;;;;;28.00;26.00;101020.06;4431439;32;20016;-70
2022/06/20 01:52:07;;;;;;;;;;;;;;;28.12;25.83;101024.31;4432919;32;20390;-70
2022/06/20 01:54:36;;;;;;;;;;;;;;;27.98;25.95;101023.53;4431708;32;20000;-70
2022/06/20 01:57:03;;;;;;;;;;;;;;;27.78;25.98;101021.25;4431127;32;20260;-70
2022/06/20 01:59:32;;;;;;;;;;;;;;;28.03;25.80;101027.66;4429943;32;20012;-70
2022/06/20 02:01:58;;;;;;;;;;;;;;;27.85;25.94;101017.69;4433295;32;20306;-69
2022/06/20 02:04:26;;;;;;;;;;;;;;;27.91;25.98;101020.50;4430359;32;20844;-69
2022/06/20 02:06:52;;;;;;;;;;;;;;;28.04;25.90;101017.66;4431033;32;20560;-69
2022/06/20 02:09:18;;;;;;;;;;;;;;;27.97;26.00;101024.88;4430372;32;20026;-69
2022/06/20 02:11:45;;;;;;;;;;;;;;;27.96;26.05;101020.44;4434178;32;20388;-69
2022/06/20 02:14:14;;;;;;;;;;;;;;;27.82;26.42;101024.56;4429497;32;20013;-69
2022/06/20 02:16:42;;;;;;;;;;;;;;;27.91;26.20;101027.06;4432541;32;20012;-69
2022/06/20 02:19:11;;;;;;;;;;;;;;;27.71;26.38;101024.78;4433466;32;20031;-69
2022/06/20 02:21:38;;;;;;;;;;;;;;;27.77;26.39;101025.47;4433396;32;20056;-69
2022/06/20 02:24:11;;;;;;;;;;;;;;;27.97;26.08;101027.75;4430352;32;19958;-69
2022/06/20 02:26:39;;;;;;;;;;;;;;;27.81;26.31;101022.22;4430197;32;20433;-69
2022/06/20 02:29:08;;;;;;;;;;;;;;;27.96;26.20;101034.09;4430194;32;19953;-69
2022/06/20 02:31:33;;;;;;;;;;;;;;;27.73;26.32;101030.78;4432731;32;19981;-68
2022/06/20 02:34:00;;;;;;;;;;;;;;;27.89;26.24;101028.97;4431283;32;20375;-69
2022/06/20 02:36:26;;;;;;;;;;;;;;;27.99;25.97;101028.00;4431204;32;20000;-69
2022/06/20 02:38:52;;;;;;;;;;;;;;;28.17;25.83;101027.13;4428335;32;20765;-69
2022/06/20 02:41:21;;;;;;;;;;;;;;;28.44;25.28;101028.69;4422985;32;20001;-68
2022/06/20 02:43:51;;;;;;;;;;;;;;;28.07;25.54;101028.12;4422619;32;19969;-68
2022/06/20 02:46:20;;;;;;;;;;;;;;;28.68;25.06;101034.28;4422102;32;20057;-69
2022/06/20 02:48:47;;;;;;;;;;;;;;;28.65;24.71;101028.81;4422750;32;20361;-69
2022/06/20 02:51:16;;;;;;;;;;;;;;;28.81;24.84;101034.28;4423343;32;20379;-69
2022/06/20 02:53:45;;;;;;;;;;;;;;;28.61;24.92;101029.19;4421553;32;20335;-69
2022/06/20 02:56:14;;;;;;;;;;;;;;;28.44;25.06;101039.53;4422061;32;19957;-69
2022/06/20 02:58:42;;;;;;;;;;;;;;;28.55;25.09;101039.31;4423087;32;20004;-68
2022/06/20 03:01:28;;;;;;;;;;;;;;;28.41;25.22;101037.72;4419346;32;19989;-68
2022/06/20 03:03:55;;;;;;;;;;;;;;;28.44;25.19;101033.72;4420313;32;20052;-69
2022/06/20 03:08:58;;;;;;;;;;;;;;;28.51;25.30;101045.44;3951699;32;15722603;-69
2022/06/20 03:11:24;;;;;;;;;;;;;;;28.51;25.30;101045.44;4426944;32;19972;-69
2022/06/20 03:13:50;;;;;;;;;;;;;;;27.96;25.76;101048.56;4426062;32;20011;-69
2022/06/20 03:16:18;;;;;;;;;;;;;;;27.94;25.76;101048.31;4426582;32;20011;-69
2022/06/20 03:18:48;;;;;;;;;;;;;;;28.02;25.77;101061.63;4426052;32;20014;-69
2022/06/20 03:21:14;;;;;;;;;;;;;;;27.99;25.80;101068.50;4427083;32;20013;-69
2022/06/20 03:23:40;;;;;;;;;;;;;;;27.96;25.81;101066.72;4426153;32;20460;-69
2022/06/20 03:26:11;;;;;;;;;;;;;;;28.01;25.87;101070.84;4425132;32;19961;-69
2022/06/20 03:28:37;;;;;;;;;;;;;;;27.98;25.87;101066.94;4424237;32;19969;-68
2022/06/20 03:31:03;;;;;;;;;;;;;;;27.83;26.06;101081.13;4427241;32;19972;-68
2022/06/20 03:33:29;;;;;;;;;;;;;;;27.74;26.29;101089.41;4426810;32;19953;-69
2022/06/20 03:38:30;;;;;;;;;;;;;;;27.53;26.94;101112.34;3950626;32;15723610;-68
2022/06/20 03:40:56;;;;;;;;;;;;;;;27.53;26.94;101112.34;4429321;32;19957;-69
2022/06/20 03:43:23;;;;;;;;;;;;;;;27.25;26.92;101109.06;4426841;32;20016;-68
2022/06/20 03:45:52;;;;;;;;;;;;;;;27.10;27.23;101123.16;4426828;32;20061;-69
2022/06/20 03:48:24;;;;;;;;;;;;;;;27.29;27.07;101126.88;4430633;32;19993;-69
2022/06/20 03:53:28;;;;;;;;;;;;;;;27.25;27.24;101126.41;3949997;32;15723529;-68
2022/06/20 03:56:05;;;;;;;;;;;;;;;26.80;27.50;101123.25;4427378;32;19996;-68
2022/06/20 03:58:35;;;;;;;;;;;;;;;27.20;27.28;101130.12;4427350;32;19961;-68
2022/06/20 04:01:05;;;;;;;;;;;;;;;27.14;27.19;101133.09;4427259;32;19997;-69
2022/06/20 04:03:34;;;;;;;;;;;;;;;27.32;26.90;101140.22;4426833;32;19957;-68
2022/06/20 04:06:11;;;;;;;;;;;;;;;27.53;27.07;101138.37;4427392;32;20020;-68
2022/06/20 04:11:30;;;;;;;;;;;;;;;27.62;26.74;101135.06;4429937;32;19957;-69
2022/06/20 04:14:02;;;;;;;;;;;;;;;27.93;26.25;101150.94;4424356;32;19961;-69
2022/06/20 04:16:34;;;;;;;;;;;;;;;27.95;26.18;101149.03;4425258;32;20003;-69
2022/06/20 04:21:55;;;;;;;;;;;;;;;28.26;25.79;101162.72;3951851;32;15723602;-69
2022/06/20 04:29:36;;;;;;;;;;;;;;;29.19;24.60;101170.25;3961030;31;15715950;-69
2022/06/20 04:32:08;;;;;;;;;;;;;;;29.19;24.60;101170.25;4439742;32;20016;-69
2022/06/20 04:34:40;;;;;;;;;;;;;;;28.92;24.88;101167.34;4433497;32;19961;-69
2022/06/20 04:37:18;;;;;;;;;;;;;;;28.98;24.88;101167.22;4437735;32;20474;-69
2022/06/20 04:39:58;;;;;;;;;;;;;;;28.97;24.73;101172.22;4436867;32;19958;-68
2022/06/20 04:45:19;;;;;;;;;;;;;;;29.56;24.35;101182.34;3962746;31;15716489;-69
2022/06/20 04:47:55;;;;;;;;;;;;;;;29.56;24.35;101182.34;4445015;32;19957;-69
2022/06/20 04:50:25;;;;;;;;;;;;;;;29.15;24.61;101187.19;4443038;32;20261;-69
2022/06/20 04:52:52;;;;;;;;;;;;;;;29.12;24.55;101191.22;4443229;32;20339;-69
2022/06/20 04:55:20;;;;;;;;;;;;;;;28.93;24.57;101188.41;4444685;32;19996;-68
2022/06/20 04:57:46;;;;;;;;;;;;;;;29.07;24.71;101197.91;4444530;32;19991;-69
2022/06/20 05:00:20;;;;;;;;;;;;;;;29.03;24.60;101201.12;4444228;32;20441;-69
2022/06/20 05:02:47;;;;;;;;;;;;;;;29.23;24.35;101203.34;4441518;32;19963;-68
2022/06/20 05:05:14;;;;;;;;;;;;;;;29.19;24.50;101199.22;4442541;32;20288;-69
2022/06/20 05:07:41;;;;;;;;;;;;;;;29.04;24.54;101196.91;4444753;32;20001;-69
2022/06/20 05:10:26;;;;;;;;;;;;;;;29.22;24.18;101201.00;4449001;32;20109;-69
2022/06/20 05:12:57;;;;;;;;;;;;;;;29.52;23.84;101196.44;4444109;32;20538;-68
2022/06/20 05:15:30;;;;;;;;;;;;;;;29.32;24.08;101197.09;4443211;32;20012;-69
2022/06/20 05:17:56;;;;;;;;;;;;;;;28.46;25.02;101191.09;4439622;32;19979;-69
2022/06/20 05:20:25;;;;;;;;;;;;;;;29.22;24.10;101198.12;4442444;32;19968;-69
2022/06/20 05:22:55;;;;;;;;;;;;;;;29.17;24.26;101199.78;4445342;32;20000;-69
2022/06/20 05:25:23;;;;;;;;;;;;;;;29.40;24.13;101200.13;4441444;32;19992;-68
2022/06/20 05:27:52;;;;;;;;;;;;;;;29.53;23.57;101203.78;4443358;32;19967;-69
2022/06/20 05:30:19;;;;;;;;;;;;;;;29.61;23.75;101204.66;4441671;32;20564;-69
2022/06/20 05:32:51;;;;;;;;;;;;;;;29.78;23.59;101213.00;4445046;32;20039;-68
2022/06/20 05:35:21;;;;;;;;;;;;;;;29.76;23.36;101210.66;4441883;32;20298;-69
2022/06/20 05:37:50;;;;;;;;;;;;;;;29.90;23.31;101209.28;4444529;32;20432;-69
2022/06/20 05:40:20;;;;;;;;;;;;;;;29.91;23.37;101210.09;4446030;32;20528;-69
2022/06/20 05:42:45;;;;;;;;;;;;;;;29.84;23.45;101222.38;4442708;32;19958;-69
2022/06/20 05:45:14;;;;;;;;;;;;;;;29.81;23.55;101217.69;4440997;32;20007;-69
2022/06/20 05:47:40;;;;;;;;;;;;;;;29.63;23.55;101225.19;4439718;32;19957;-69
2022/06/20 05:50:20;;;;;;;;;;;;;;;29.60;23.68;101217.59;4437190;32;19997;-69
2022/06/20 05:52:46;;;;;;;;;;;;;;;29.76;23.56;101224.41;4443481;32;19972;-69
2022/06/20 05:55:22;;;;;;;;;;;;;;;29.55;23.73;101224.31;4435431;32;20373;-69
2022/06/20 05:57:48;;;;;;;;;;;;;;;29.85;23.54;101229.75;4433593;32;20457;-69
2022/06/20 06:00:18;;;;;;;;;;;;;;;29.59;23.92;101227.66;4430457;32;20336;-69
2022/06/20 06:02:49;;;;;;;;;;;;;;;29.76;23.71;101225.16;4429978;32;19994;-69
2022/06/20 06:07:58;;;;;;;;;;;;;;;30.27;23.36;101222.69;3970691;31;15716554;-69
2022/06/20 06:10:44;;;;;;;;;;;;;;;30.27;23.36;101222.69;4446246;32;21091;-69
2022/06/20 06:13:23;;;;;;;;;;;;;;;29.59;23.97;101226.84;4443952;32;20295;-69
2022/06/20 06:18:24;;;;;;;;;;;;;;;29.26;24.48;101215.97;3948737;32;15723391;-69
2022/06/20 06:20:50;;;;;;;;;;;;;;;29.26;24.48;101215.97;4425264;32;19961;-69
2022/06/20 06:23:15;;;;;;;;;;;;;;;29.66;24.02;101220.41;4427935;32;20477;-68
2022/06/20 06:25:42;;;;;;;;;;;;;;;29.44;24.07;101229.53;4422378;32;20209;-69
2022/06/20 06:30:51;;;;;;;;;;;;;;;29.92;23.77;101229.03;3964248;31;15720232;-69
2022/06/20 06:33:37;;;;;;;;;;;;;;;29.70;23.86;101235.34;4437255;32;19992;-69
2022/06/20 06:36:07;;;;;;;;;;;;;;;29.22;24.31;101236.59;4443039;32;19969;-69
2022/06/20 06:38:37;;;;;;;;;;;;;;;29.27;24.42;101229.13;4446122;32;20000;-69
2022/06/20 06:41:06;;;;;;;;;;;;;;;28.86;24.93;101236.19;4442319;32;20007;-69
2022/06/20 06:43:37;;;;;;;;;;;;;;;29.68;24.04;101233.00;4443976;32;20410;-69
2022/06/20 06:46:06;;;;;;;;;;;;;;;29.85;23.84;101235.56;4441004;32;19957;-69
2022/06/20 06:48:37;;;;;;;;;;;;;;;29.88;23.68;101238.09;4440644;32;20043;-69
2022/06/20 06:51:06;;;;;;;;;;;;;;;29.33;24.08;101238.50;4442754;32;19996;-69
2022/06/20 06:53:50;;;;;;;;;;;;;;;28.90;24.54;101230.84;4439087;32;19992;-69
2022/06/20 06:56:19;;;;;;;;;;;;;;;29.36;24.14;101235.22;4445468;32;20318;-69
2022/06/20 06:58:56;;;;;;;;;;;;;;;29.74;23.76;101242.38;4435126;32;20030;-69
2022/06/20 07:01:26;;;;;;;;;;;;;;;29.94;23.35;101229.28;4434474;32;20537;-69
2022/06/20 07:03:56;;;;;;;;;;;;;;;30.00;23.34;101227.78;4440326;32;19991;-69
2022/06/20 07:06:32;;;;;;;;;;;;;;;29.12;24.17;101220.19;4440427;32;19973;-69
2022/06/20 07:09:02;;;;;;;;;;;;;;;29.40;24.11;101229.13;4442689;32;20390;-69
2022/06/20 07:11:31;;;;;;;;;;;;;;;29.61;23.83;101219.16;4437092;32;20633;-69
2022/06/20 07:14:03;;;;;;;;;;;;;;;29.88;23.33;101243.87;4436044;32;20521;-69
2022/06/20 07:16:35;;;;;;;;;;;;;;;28.74;24.45;101229.03;4432280;32;20363;-69
2022/06/20 07:19:01;;;;;;;;;;;;;;;29.32;24.12;101234.81;4433649;32;20286;-69
2022/06/20 07:21:29;;;;;;;;;;;;;;;29.88;23.29;101228.62;4434348;32;20019;-69
2022/06/20 07:23:58;;;;;;;;;;;;;;;30.45;22.90;101225.41;4436985;32;20802;-69
2022/06/20 07:26:25;;;;;;;;;;;;;;;30.40;23.00;101225.53;4437785;32;20010;-69
2022/06/20 07:28:55;;;;;;;;;;;;;;;30.66;22.67;101231.19;4435115;32;20025;-69
2022/06/20 07:34:02;;;;;;;;;;;;;;;30.46;22.52;101229.06;3942063;32;15722451;-69
2022/06/20 07:36:31;;;;;;;;;;;;;;;30.46;22.52;101229.06;4414914;32;19996;-69
2022/06/20 07:39:01;;;;;;;;;;;;;;;29.91;23.23;101228.25;4416264;32;19993;-70
2022/06/20 07:41:34;;;;;;;;;;;;;;;30.93;21.96;101247.16;4419792;32;20478;-69
2022/06/20 07:44:06;;;;;;;;;;;;;;;31.18;21.64;101230.88;4416458;32;19996;-69
2022/06/20 07:46:37;;;;;;;;;;;;;;;30.93;21.83;101234.75;4417069;32;20284;-69
2022/06/20 07:49:05;;;;;;;;;;;;;;;31.60;21.24;101243.91;4403960;32;19999;-70
2022/06/20 07:51:34;;;;;;;;;;;;;;;31.36;21.52;101234.88;4416738;32;20408;-70
2022/06/20 07:54:07;;;;;;;;;;;;;;;28.31;24.70;101239.22;4417240;32;19976;-70
2022/06/20 07:56:53;;;;;;;;;;;;;;;30.61;22.26;101244.53;4418688;32;20143;-69
2022/06/20 07:59:38;;;;;;;;;;;;;;;30.83;22.09;101234.47;4417520;32;19989;-69
2022/06/20 08:02:10;;;;;;;;;;;;;;;30.69;21.92;101230.84;4405635;32;20543;-70
2022/06/20 08:04:38;;;;;;;;;;;;;;;30.80;21.85;101233.47;4417482;32;20024;-70
2022/06/20 08:12:23;;;;;;;;;;;;;;;31.75;20.50;101222.88;3941994;32;15725513;-70
2022/06/20 08:15:06;;;;;;;;;;;;;;;31.83;19.95;101224.47;4412918;32;19987;-70
2022/06/20 08:17:32;;;;;;;;;;;;;;;31.85;19.91;101232.63;4418952;32;19993;-70
2022/06/20 08:19:59;;;;;;;;;;;;;;;31.83;20.06;101229.50;4419458;32;19992;-69
2022/06/20 08:22:47;;;;;;;;;;;;;;;31.62;20.17;101220.06;4419736;32;20005;-70
2022/06/20 08:25:31;;;;;;;;;;;;;;;32.07;19.70;101226.09;4417115;32;20077;-69
2022/06/20 08:30:43;;;;;;;;;;;;;;;31.79;20.06;101232.78;3948939;32;15724428;-69
2022/06/20 08:33:22;;;;;;;;;;;;;;;31.79;20.06;101232.78;4412399;32;20247;-70
2022/06/20 08:41:22;;;;;;;;;;;;;;;31.18;20.66;101216.31;3903023;32;15723635;-69
2022/06/20 08:46:44;;;;;;;;;;;;;;;31.71;20.09;101239.91;3958568;31;15716006;-68
2022/06/20 08:52:12;;;;;;;;;;;;;;;32.36;19.65;101225.41;3948802;32;15721538;-69
2022/06/20 08:57:50;;;;;;;;;;;;;;;31.85;20.13;101215.94;3946051;32;15728914;-69
2022/06/20 09:00:19;;;;;;;;;;;;;;;32.43;19.48;101218.81;4410174;32;20976;-70
2022/06/20 09:11:00;;;;;;;;;;;;;;;34.73;17.27;101226.47;3948563;32;15722610;-69
2022/06/20 09:16:10;;;;;;;;;;;;;;;35.51;16.52;101227.50;3944443;32;15723166;-69
2022/06/20 09:18:55;;;;;;;;;;;;;;;35.51;16.52;101227.50;4423651;32;20034;-69
2022/06/20 09:26:34;;;;;;;;;;;;;;;34.97;16.77;101208.16;3943313;32;15724401;-69
2022/06/20 09:40:13;;;;;;;;;;;;;;;37.08;15.22;101224.41;3942601;32;15725147;-69
2022/06/20 09:45:42;;;;;;;;;;;;;;;37.92;14.29;101239.03;3942461;32;15730625;-70
2022/06/20 10:04:22;;;;;;;;;;;;;;;38.84;13.54;101242.97;3942077;32;15723434;-70
2022/06/20 10:09:37;;;;;;;;;;;;;;;38.68;13.66;101238.09;3941932;32;15724619;-68
2022/06/20 10:12:09;;;;;;;;;;;;;;;38.68;13.66;101238.09;4416879;32;19988;-70
2022/06/20 10:17:17;;;;;;;;;;;;;;;38.10;14.02;101236.72;3939262;32;15726214;-70
2022/06/20 10:20:02;;;;;;;;;;;;;;;38.10;14.02;101236.72;4408141;32;19954;-70
2022/06/20 10:22:34;;;;;;;;;;;;;;;37.57;14.43;101228.97;4407345;32;20004;-69
2022/06/20 10:27:55;;;;;;;;;;;;;;;37.74;14.48;101222.97;3949134;32;15733615;-70
2022/06/20 10:30:33;;;;;;;;;;;;;;;37.74;14.48;101222.97;4431795;32;20403;-69
2022/06/20 10:33:19;;;;;;;;;;;;;;;38.96;13.54;101216.56;4435849;32;19996;-71
2022/06/20 10:35:47;;;;;;;;;;;;;;;38.84;13.78;101221.59;4436205;32;20003;-69
2022/06/20 10:46:25;;;;;;;;;;;;;;;40.52;12.64;101220.66;3936688;32;15721906;-71
2022/06/20 10:48:59;;;;;;;;;;;;;;;40.52;12.64;101220.66;4416072;32;19971;-69
2022/06/20 10:51:31;;;;;;;;;;;;;;;40.68;12.09;101218.75;4414389;32;19986;-69
2022/06/20 10:56:55;;;;;;;;;;;;;;;41.21;11.87;101211.78;3942309;32;15724520;-70
2022/06/20 11:10:23;;;;;;;;;;;;;;;41.95;11.66;101198.56;3950116;31;15727531;-70
2022/06/20 11:18:27;;;;;;;;;;;;;;;43.09;10.59;101210.97;3948519;32;15728308;-69
2022/06/20 11:21:00;;;;;;;;;;;;;;;43.09;10.59;101210.97;4422492;32;20005;-70
2022/06/20 11:23:35;;;;;;;;;;;;;;;42.67;11.02;101207.84;4418305;32;20021;-71
2022/06/20 11:26:11;;;;;;;;;;;;;;;41.42;11.51;101212.38;4420219;32;20000;-70
2022/06/20 11:28:57;;;;;;;;;;;;;;;42.34;10.82;101207.47;4422747;32;20292;-68
2022/06/20 11:37:09;;;;;;;;;;;;;;;42.67;11.02;101187.88;3942864;32;15722423;-69
2022/06/20 11:39:54;;;;;;;;;;;;;;;42.67;11.02;101187.88;4420708;32;20003;-69
2022/06/20 11:47:53;;;;;;;;;;;;;;;43.12;10.68;101178.50;3944343;32;15723401;-70
2022/06/20 11:50:39;;;;;;;;;;;;;;;42.94;10.63;101187.13;4427596;32;20387;-69
2022/06/20 11:53:19;;;;;;;;;;;;;;;44.32;9.71;101187.66;4425269;32;20099;-69
2022/06/20 11:55:51;;;;;;;;;;;;;;;44.17;9.82;101176.50;4424731;32;20007;-69
2022/06/20 12:00:55;;;;;;;;;;;;;;;42.79;10.52;101158.97;3944895;32;15723403;-71
2022/06/20 12:06:21;;;;;;;;;;;;;;;43.85;10.08;101157.09;3940295;32;15723562;-70
2022/06/20 12:14:25;;;;;;;;;;;;;;;44.00;9.82;101145.28;3942519;32;15723483;-70
2022/06/20 12:17:00;;;;;;;;;;;;;;;44.00;9.82;101145.28;4426165;32;20329;-70
2022/06/20 12:24:49;;;;;;;;;;;;;;;45.53;9.20;101156.09;4424442;32;19954;-70
2022/06/20 12:27:16;;;;;;;;;;;;;;;45.83;8.80;101159.59;4425935;32;20354;-69
2022/06/20 12:29:43;;;;;;;;;;;;;;;45.32;8.95;101141.78;4425121;32;19981;-70
2022/06/20 12:32:18;;;;;;;;;;;;;;;45.35;9.04;101146.38;4422091;32;19972;-70
2022/06/20 12:34:47;;;;;;;;;;;;;;;44.97;9.10;101146.88;4423276;32;20335;-70
2022/06/20 12:37:18;;;;;;;;;;;;;;;44.59;9.10;101137.72;4422050;32;19988;-70
2022/06/20 12:39:51;;;;;;;;;;;;;;;43.61;9.59;101138.09;4408136;32;20387;-69
2022/06/20 12:45:28;;;;;;;;;;;;;;;44.53;9.45;101137.44;3943778;32;15724428;-69
2022/06/20 12:48:03;;;;;;;;;;;;;;;44.53;9.45;101137.44;4421281;32;20707;-69
2022/06/20 12:53:25;;;;;;;;;;;;;;;46.05;8.51;101125.56;3924011;32;15729323;-70
2022/06/20 12:55:57;;;;;;;;;;;;;;;46.05;8.51;101125.56;4403790;32;20285;-70
2022/06/20 13:00:58;;;;;;;;;;;;;;;46.04;8.61;101109.13;3948855;32;15724261;-71
2022/06/20 13:03:44;;;;;;;;;;;;;;;46.46;8.41;101113.78;4420201;32;19994;-71
2022/06/20 13:06:29;;;;;;;;;;;;;;;46.82;8.20;101113.62;4419958;32;19993;-70
2022/06/20 13:09:10;;;;;;;;;;;;;;;47.63;7.71;101115.81;4421128;32;20034;-70
2022/06/20 13:16:56;;;;;;;;;;;;;;;49.01;7.15;101112.59;3943030;32;15722567;-69
2022/06/20 13:19:28;;;;;;;;;;;;;;;49.01;7.15;101112.59;4414401;32;20241;-69
2022/06/20 13:24:36;;;;;;;;;;;;;;;47.60;7.85;101112.34;3943503;32;15725373;-70
2022/06/20 13:29:59;;;;;;;;;;;;;;;49.22;7.02;101097.47;3943534;32;15723577;-71
2022/06/20 13:37:54;;;;;;;;;;;;;;;45.33;9.00;101083.12;3956260;31;15719140;-70
2022/06/20 13:40:33;;;;;;;;;;;;;;;45.33;9.00;101083.12;4432865;32;20384;-70
2022/06/20 13:43:04;;;;;;;;;;;;;;;46.91;8.10;101098.37;4427093;32;20552;-70
2022/06/20 13:45:50;;;;;;;;;;;;;;;47.76;7.68;101093.09;4426238;32;19992;-70
2022/06/20 13:48:20;;;;;;;;;;;;;;;48.05;7.56;101095.53;4427557;32;20012;-71
2022/06/20 13:50:49;;;;;;;;;;;;;;;49.40;6.81;101094.97;4427777;32;20015;-70
2022/06/20 13:53:20;;;;;;;;;;;;;;;50.53;6.21;101088.59;4426348;32;20355;-70
2022/06/20 13:55:49;;;;;;;;;;;;;;;51.20;5.90;101100.44;4429224;32;20008;-71
2022/06/20 13:58:19;;;;;;;;;;;;;;;51.35;5.99;101096.94;4430988;32;20069;-70
2022/06/20 14:00:53;;;;;;;;;;;;;;;50.17;6.49;101093.81;4430116;32;20024;-71
2022/06/20 14:03:25;;;;;;;;;;;;;;;50.08;6.57;101098.13;4426416;32;19973;-71
2022/06/20 14:06:02;;;;;;;;;;;;;;;48.58;7.30;101088.94;4427030;32;20024;-71
2022/06/20 14:08:28;;;;;;;;;;;;;;;49.12;6.96;101084.47;4427065;32;20076;-71
2022/06/20 14:10:58;;;;;;;;;;;;;;;48.98;7.21;101087.84;4429213;32;20300;-74
2022/06/20 14:13:29;;;;;;;;;;;;;;;50.62;6.37;101084.28;4431517;32;20302;-71
2022/06/20 14:16:14;;;;;;;;;;;;;;;51.58;6.02;101076.31;4430294;32;20032;-71
2022/06/20 14:18:46;;;;;;;;;;;;;;;51.79;5.89;101087.94;4427212;32;20047;-71
2022/06/20 14:21:12;;;;;;;;;;;;;;;52.03;5.58;101084.53;4428380;32;20635;-72
2022/06/20 14:23:38;;;;;;;;;;;;;;;51.37;6.04;101073.00;4425783;32;21030;-71
2022/06/20 14:26:06;;;;;;;;;;;;;;;52.92;5.36;101075.91;4425947;32;19994;-71
2022/06/20 14:34:01;;;;;;;;;;;;;;;54.46;4.64;101078.47;3945102;32;15725468;-71
2022/06/20 14:39:14;;;;;;;;;;;;;;;54.09;4.86;101076.81;3945330;32;15724259;-71
2022/06/20 14:41:59;;;;;;;;;;;;;;;54.00;4.83;101081.28;4419433;32;20467;-71
2022/06/20 14:47:22;;;;;;;;;;;;;;;55.38;4.57;101077.91;3950974;31;15722281;-71
2022/06/20 14:49:54;;;;;;;;;;;;;;;55.38;4.57;101077.91;4428333;32;19997;-71
2022/06/20 15:00:24;;;;;;;;;;;;;;;52.03;5.73;101066.50;3943625;32;15725579;-70
2022/06/20 15:05:31;;;;;;;;;;;;;;;54.65;4.78;101064.97;3943390;32;15753549;-70
2022/06/20 15:08:03;;;;;;;;;;;;;;;54.65;4.78;101064.97;4415682;32;19976;-71
2022/06/20 15:10:36;;;;;;;;;;;;;;;53.41;5.12;101062.06;4419729;32;20024;-71
2022/06/20 15:13:04;;;;;;;;;;;;;;;53.28;5.27;101059.69;4414250;32;20351;-70
2022/06/20 15:15:33;;;;;;;;;;;;;;;52.18;5.61;101053.97;4416684;32;20007;-70
2022/06/20 15:20:44;;;;;;;;;;;;;;;49.97;6.64;101039.44;3945161;32;15722527;-69
2022/06/20 15:28:44;;;;;;;;;;;;;;;49.87;6.86;101031.75;3947099;32;15728433;-70
2022/06/20 15:31:12;;;;;;;;;;;;;;;49.87;6.86;101031.75;4435159;32;20015;-70
2022/06/20 15:33:42;;;;;;;;;;;;;;;49.38;6.78;101026.09;4433542;32;20023;-70
2022/06/20 15:38:54;;;;;;;;;;;;;;;50.39;6.52;101023.16;3945037;32;15727620;-69
2022/06/20 15:44:17;;;;;;;;;;;;;;;50.63;6.42;101019.87;3946221;32;15722461;-70
2022/06/20 15:46:52;;;;;;;;;;;;;;;50.63;6.42;101019.87;4422544;32;20427;-70
2022/06/20 15:52:12;;;;;;;;;;;;;;;50.70;6.53;101013.28;3944419;32;15722421;-70
2022/06/20 15:57:34;;;;;;;;;;;;;;;50.22;6.58;101018.31;3947087;32;15722562;-70
2022/06/20 16:02:56;;;;;;;;;;;;;;;50.26;6.69;101014.62;3943630;32;15724560;-70
2022/06/20 16:05:42;;;;;;;;;;;;;;;50.26;6.69;101014.62;4420557;32;19974;-70
2022/06/20 16:08:12;;;;;;;;;;;;;;;49.98;6.75;101014.03;4420954;32;20016;-71
2022/06/20 16:10:51;;;;;;;;;;;;;;;50.10;6.78;101012.06;4424090;32;19954;-71
2022/06/20 16:13:20;;;;;;;;;;;;;;;49.06;7.32;101009.56;4418073;32;20005;-71
2022/06/20 16:15:47;;;;;;;;;;;;;;;48.52;7.59;101011.09;4422196;32;19992;-70
2022/06/20 16:18:16;;;;;;;;;;;;;;;46.13;8.86;100997.19;4420719;32;20981;-70
2022/06/20 16:20:43;;;;;;;;;;;;;;;47.19;8.41;101003.22;4421679;32;19983;-70
2022/06/20 16:23:29;;;;;;;;;;;;;;;47.84;8.02;100997.84;4420176;32;20005;-70
2022/06/20 16:26:05;;;;;;;;;;;;;;;47.83;8.10;100997.13;4419403;32;19958;-70
2022/06/20 16:28:33;;;;;;;;;;;;;;;48.34;7.88;101002.41;4420573;32;20042;-70
2022/06/20 16:31:18;;;;;;;;;;;;;;;48.26;8.03;100995.41;4421830;32;19975;-71
2022/06/20 16:33:45;;;;;;;;;;;;;;;48.53;7.92;101004.41;4410058;32;20193;-70
2022/06/20 16:36:21;;;;;;;;;;;;;;;48.24;8.17;101005.03;4420264;32;19992;-70
2022/06/20 16:38:51;;;;;;;;;;;;;;;47.45;8.53;100998.88;4420811;32;20034;-70
2022/06/20 16:41:23;;;;;;;;;;;;;;;48.37;8.09;101003.19;4421336;32;20381;-69
2022/06/20 16:43:54;;;;;;;;;;;;;;;48.03;8.27;101008.94;4418458;32;20081;-69
2022/06/20 16:46:28;;;;;;;;;;;;;;;48.42;8.09;101005.59;4419320;32;20015;-70
2022/06/20 16:54:27;;;;;;;;;;;;;;;45.74;9.92;100994.16;3943315;32;15723623;-70
2022/06/20 16:56:56;;;;;;;;;;;;;;;45.74;9.92;100994.16;4426017;32;20021;-70
2022/06/20 16:59:24;;;;;;;;;;;;;;;44.38;10.55;100989.03;4427153;32;19965;-69
2022/06/20 17:20:33;;;;;;;;;;;;;;;47.99;8.61;100975.97;3953218;31;15719118;-68
2022/06/20 17:23:19;;;;;;;;;;;;;;;47.99;8.61;100975.97;4428790;32;20006;-68
2022/06/20 17:25:52;;;;;;;;;;;;;;;47.05;9.16;100967.72;4431857;32;20403;-70